createdAt,value
2022-12-26T00:00:51.481Z,11.95
2022-12-26T00:03:17.834Z,12.16
2022-12-26T00:05:44.372Z,12.19
2022-12-26T00:08:10.779Z,12.28
2022-12-26T00:10:38.567Z,12.10
2022-12-26T00:13:40.307Z,12.10
2022-12-26T00:15:51.487Z,12.08
2022-12-26T00:18:17.947Z,11.98
2022-12-26T00:20:44.410Z,12.06
2022-12-26T00:23:10.833Z,12.05
2022-12-26T00:25:38.578Z,12.09
2022-12-26T00:28:05.106Z,12.08
2022-12-26T00:30:31.527Z,11.99
2022-12-26T00:32:57.978Z,12.41
2022-12-26T00:35:24.419Z,12.33
2022-12-26T00:37:50.897Z,12.01
2022-12-26T00:40:18.612Z,11.99
2022-12-26T00:42:46.401Z,12.16
2022-12-26T00:45:12.806Z,12.03
2022-12-26T00:47:39.208Z,11.97
2022-12-26T00:50:14.073Z,12.09
2022-12-26T00:52:41.606Z,12.20
2022-12-26T00:55:09.306Z,12.31
2022-12-26T00:57:35.725Z,12.09
2022-12-26T01:00:04.237Z,11.97
2022-12-26T01:02:30.792Z,11.86
2022-12-26T01:04:57.828Z,11.87
2022-12-26T01:07:24.771Z,11.99
2022-12-26T01:09:51.180Z,11.94
2022-12-26T01:12:17.641Z,12.09
2022-12-26T01:14:44.379Z,12.00
2022-12-26T01:17:12.146Z,11.93
2022-12-26T01:19:38.559Z,11.94
2022-12-26T01:22:05.008Z,12.21
2022-12-26T01:24:31.418Z,12.03
2022-12-26T01:26:57.799Z,12.07
2022-12-26T01:29:24.209Z,12.08
2022-12-26T01:31:50.736Z,12.04
2022-12-26T01:34:18.580Z,11.96
2022-12-26T01:36:44.989Z,12.08
2022-12-26T01:39:11.387Z,12.09
2022-12-26T01:41:37.819Z,12.09
2022-12-26T01:44:06.138Z,12.10
2022-12-26T01:46:38.303Z,12.20
2022-12-26T01:49:13.315Z,12.14
2022-12-26T01:51:44.747Z,12.22
2022-12-26T01:54:41.208Z,12.27
2022-12-26T01:57:01.202Z,12.27
2022-12-26T01:59:32.922Z,12.15
2022-12-26T02:02:00.374Z,12.24
2022-12-26T02:04:32.928Z,12.18
2022-12-26T02:07:04.175Z,12.11
2022-12-26T02:09:31.133Z,11.99
2022-12-26T02:12:35.917Z,12.11
2022-12-26T02:14:49.651Z,12.20
2022-12-26T02:17:16.888Z,12.10
2022-12-26T02:19:54.600Z,12.09
2022-12-26T02:22:41.205Z,12.05
2022-12-26T02:25:43.032Z,12.07
2022-12-26T02:28:36.352Z,12.15
2022-12-26T02:31:07.480Z,12.04
2022-12-26T02:33:44.155Z,12.09
2022-12-26T02:36:42.545Z,12.14
2022-12-26T02:39:45.542Z,12.10
2022-12-26T02:42:18.620Z,12.00
2022-12-26T02:44:54.014Z,11.80
2022-12-26T02:47:30.061Z,12.03
2022-12-26T02:50:04.025Z,12.14
2022-12-26T02:52:39.050Z,12.14
2022-12-26T02:55:09.426Z,12.14
2022-12-26T02:57:41.605Z,11.80
2022-12-26T03:00:13.756Z,12.04
2022-12-26T03:02:47.245Z,12.19
2022-12-26T03:05:21.574Z,12.13
2022-12-26T03:07:48.518Z,12.05
2022-12-26T03:10:18.330Z,12.00
2022-12-26T03:12:50.219Z,11.80
2022-12-26T03:15:20.588Z,12.20
2022-12-26T03:17:52.931Z,11.92
2022-12-26T03:20:23.877Z,12.08
2022-12-26T03:22:54.588Z,12.22
2022-12-26T03:25:29.917Z,12.27
2022-12-26T03:27:57.641Z,12.33
2022-12-26T03:30:24.714Z,12.05
2022-12-26T03:32:55.196Z,12.17
2022-12-26T03:35:22.372Z,12.04
2022-12-26T03:37:53.316Z,11.94
2022-12-26T03:40:38.414Z,11.93
2022-12-26T03:43:15.520Z,11.85
2022-12-26T03:45:50.720Z,11.94
2022-12-26T03:48:26.288Z,11.83
2022-12-26T03:50:59.679Z,11.80
2022-12-26T03:53:31.192Z,11.74
2022-12-26T03:56:06.471Z,11.72
2022-12-26T03:58:41.121Z,11.65
2022-12-26T04:01:12.518Z,11.78
2022-12-26T04:03:43.770Z,11.38
2022-12-26T04:06:18.528Z,11.42
2022-12-26T04:08:49.891Z,11.41
2022-12-26T04:11:20.047Z,11.38
2022-12-26T04:13:54.450Z,11.46
2022-12-26T04:16:30.309Z,11.39
2022-12-26T04:19:05.853Z,11.62
2022-12-26T04:21:39.676Z,11.38
2022-12-26T04:24:12.009Z,11.35
2022-12-26T04:26:44.002Z,11.40
2022-12-26T04:29:10.488Z,11.41
2022-12-26T04:31:45.748Z,11.41
2022-12-26T04:34:21.656Z,11.43
2022-12-26T04:36:53.929Z,11.40
2022-12-26T04:39:26.114Z,11.39
2022-12-26T04:41:54.342Z,11.46
2022-12-26T04:44:23.638Z,11.32
2022-12-26T04:46:52.314Z,11.40
2022-12-26T04:49:20.268Z,11.35
2022-12-26T04:51:46.649Z,11.20
2022-12-26T04:54:13.057Z,11.20
2022-12-26T04:56:39.453Z,11.23
2022-12-26T04:59:05.851Z,11.31
2022-12-26T05:01:32.391Z,11.31
2022-12-26T05:03:58.959Z,11.30
2022-12-26T05:06:26.725Z,11.27
2022-12-26T05:08:53.152Z,11.32
2022-12-26T05:11:19.605Z,11.24
2022-12-26T05:13:46.073Z,11.22
2022-12-26T05:16:12.678Z,11.04
2022-12-26T05:18:39.105Z,11.22
2022-12-26T05:21:07.564Z,11.04
2022-12-26T05:23:35.405Z,11.12
2022-12-26T05:26:02.361Z,11.03
2022-12-26T05:28:29.061Z,10.97
2022-12-26T05:30:55.511Z,11.13
2022-12-26T05:33:21.992Z,11.20
2022-12-26T05:35:49.604Z,11.18
2022-12-26T05:38:16.059Z,11.11
2022-12-26T05:40:43.844Z,11.09
2022-12-26T05:43:10.211Z,10.97
2022-12-26T05:45:36.675Z,11.03
2022-12-26T05:48:03.457Z,10.99
2022-12-26T05:50:29.939Z,10.73
2022-12-26T05:52:56.712Z,10.55
2022-12-26T05:55:23.154Z,10.64
2022-12-26T05:57:51.076Z,10.53
2022-12-26T06:00:17.760Z,10.59
2022-12-26T06:02:44.410Z,10.45
2022-12-26T06:05:10.902Z,10.60
2022-12-26T06:07:37.793Z,10.50
2022-12-26T06:10:05.175Z,10.65
2022-12-26T06:12:31.675Z,10.52
2022-12-26T06:14:59.421Z,10.50
2022-12-26T06:17:25.871Z,10.51
2022-12-26T06:19:52.278Z,10.46
2022-12-26T06:22:18.763Z,10.61
2022-12-26T06:24:45.194Z,10.65
2022-12-26T06:27:11.617Z,10.55
2022-12-26T06:29:38.069Z,10.55
2022-12-26T06:32:06.039Z,10.49
2022-12-26T06:34:32.443Z,10.58
2022-12-26T06:36:58.867Z,10.68
2022-12-26T06:39:25.264Z,10.75
2022-12-26T06:41:52.776Z,10.60
2022-12-26T06:44:19.258Z,10.64
2022-12-26T06:46:45.775Z,10.66
2022-12-26T06:49:13.706Z,10.59
2022-12-26T06:51:40.231Z,10.51
2022-12-26T06:54:06.996Z,10.71
2022-12-26T06:56:33.448Z,10.71
2022-12-26T06:59:01.421Z,10.52
2022-12-26T07:01:30.255Z,10.63
2022-12-26T07:03:57.440Z,10.68
2022-12-26T07:06:27.535Z,10.50
2022-12-26T07:08:57.637Z,10.72
2022-12-26T07:11:26.114Z,10.61
2022-12-26T07:13:53.768Z,10.69
2022-12-26T07:16:20.767Z,10.79
2022-12-26T07:18:47.300Z,10.59
2022-12-26T07:21:15.660Z,10.46
2022-12-26T07:23:43.438Z,10.61
2022-12-26T07:26:09.995Z,10.65
2022-12-26T07:28:37.673Z,10.59
2022-12-26T07:31:04.748Z,10.53
2022-12-26T07:33:31.861Z,10.41
2022-12-26T07:35:59.323Z,10.39
2022-12-26T07:38:25.753Z,10.35
2022-12-26T07:40:54.815Z,10.47
2022-12-26T07:43:21.126Z,10.44
2022-12-26T07:45:50.356Z,10.45
2022-12-26T07:48:16.928Z,10.34
2022-12-26T07:50:43.626Z,10.30
2022-12-26T07:53:10.051Z,10.46
2022-12-26T07:55:36.477Z,10.31
2022-12-26T07:58:04.240Z,10.12
2022-12-26T08:00:30.668Z,10.25
2022-12-26T08:03:02.842Z,10.29
2022-12-26T08:05:33.116Z,10.25
2022-12-26T08:07:59.577Z,10.14
2022-12-26T08:10:26.022Z,10.35
2022-12-26T08:12:52.468Z,10.38
2022-12-26T08:15:20.262Z,10.53
2022-12-26T08:17:46.690Z,10.72
2022-12-26T08:20:13.113Z,10.66
2022-12-26T08:22:39.560Z,10.73
2022-12-26T08:25:07.999Z,10.65
2022-12-26T08:27:34.446Z,10.90
2022-12-26T08:30:00.889Z,10.98
2022-12-26T08:32:28.763Z,10.93
2022-12-26T08:34:55.215Z,10.79
2022-12-26T08:37:21.751Z,10.81
2022-12-26T08:39:48.854Z,10.84
2022-12-26T08:42:15.297Z,10.80
2022-12-26T08:44:41.739Z,11.04
2022-12-26T08:47:08.151Z,11.20
2022-12-26T08:49:35.977Z,11.02
2022-12-26T08:52:02.533Z,11.43
2022-12-26T08:54:28.953Z,11.24
2022-12-26T08:56:55.516Z,11.32
2022-12-26T08:59:23.058Z,11.47
2022-12-26T09:01:49.616Z,11.37
2022-12-26T09:04:16.168Z,11.37
2022-12-26T09:06:44.189Z,11.35
2022-12-26T09:09:11.870Z,11.44
2022-12-26T09:11:39.491Z,11.39
2022-12-26T09:14:06.527Z,11.41
2022-12-26T09:16:38.648Z,11.43
2022-12-26T09:19:09.200Z,11.63
2022-12-26T09:21:35.683Z,11.89
2022-12-26T09:24:05.450Z,11.66
2022-12-26T09:26:32.316Z,11.77
2022-12-26T09:28:59.345Z,11.55
2022-12-26T09:31:28.116Z,11.40
2022-12-26T09:33:54.984Z,11.52
2022-12-26T09:36:23.232Z,11.57
2022-12-26T09:38:50.179Z,11.59
2022-12-26T09:41:43.955Z,11.74
2022-12-26T09:44:17.388Z,11.74
2022-12-26T09:46:50.512Z,11.68
2022-12-26T09:49:20.092Z,11.60
2022-12-26T09:51:51.670Z,11.74
2022-12-26T09:54:26.472Z,11.74
2022-12-26T09:57:02.907Z,11.42
2022-12-26T09:59:37.912Z,11.63
2022-12-26T10:02:04.578Z,11.65
2022-12-26T10:04:31.124Z,11.71
2022-12-26T10:07:07.557Z,11.93
2022-12-26T10:09:52.625Z,11.92
2022-12-26T10:12:35.491Z,11.78
2022-12-26T10:15:12.579Z,11.69
2022-12-26T10:17:44.380Z,12.17
2022-12-26T10:20:21.862Z,12.42
2022-12-26T10:23:09.968Z,12.32
2022-12-26T10:25:45.691Z,12.02
2022-12-26T10:28:21.467Z,12.19
2022-12-26T10:30:50.564Z,12.08
2022-12-26T10:33:18.383Z,11.98
2022-12-26T10:35:46.051Z,11.98
2022-12-26T10:38:25.697Z,11.70
2022-12-26T10:40:56.146Z,11.75
2022-12-26T10:43:28.441Z,11.93
2022-12-26T10:46:13.188Z,11.86
2022-12-26T10:48:39.944Z,11.71
2022-12-26T10:51:06.423Z,11.93
2022-12-26T10:53:42.298Z,11.92
2022-12-26T10:56:14.660Z,12.22
2022-12-26T10:58:45.397Z,12.14
2022-12-26T11:01:32.581Z,12.00
2022-12-26T11:04:00.889Z,11.93
2022-12-26T11:06:31.762Z,12.06
2022-12-26T11:08:59.148Z,11.95
2022-12-26T11:11:27.491Z,12.07
2022-12-26T11:14:02.068Z,12.26
2022-12-26T11:16:31.975Z,12.11
2022-12-26T11:18:58.921Z,11.84
2022-12-26T11:21:27.550Z,12.17
2022-12-26T11:24:11.079Z,12.44
2022-12-26T11:26:38.220Z,12.30
2022-12-26T11:29:10.897Z,12.29
2022-12-26T11:31:39.087Z,12.08
2022-12-26T11:34:08.664Z,12.19
2022-12-26T11:36:37.396Z,11.74
2022-12-26T11:39:07.399Z,11.84
2022-12-26T11:41:37.082Z,12.15
2022-12-26T11:44:30.107Z,12.00
2022-12-26T11:47:00.050Z,11.76
2022-12-26T11:49:31.909Z,12.07
2022-12-26T11:52:00.208Z,11.90
2022-12-26T11:54:30.607Z,11.90
2022-12-26T11:57:17.347Z,12.03
2022-12-26T11:59:45.832Z,12.32
2022-12-26T12:02:17.382Z,12.14
2022-12-26T12:04:45.142Z,11.93
2022-12-26T12:07:20.919Z,11.95
2022-12-26T12:09:53.896Z,11.88
2022-12-26T12:12:25.553Z,11.81
2022-12-26T12:15:03.044Z,11.88
2022-12-26T12:17:34.600Z,11.70
2022-12-26T12:20:17.697Z,11.68
2022-12-26T12:22:59.156Z,11.96
2022-12-26T12:25:40.525Z,11.71
2022-12-26T12:28:27.283Z,11.69
2022-12-26T12:31:03.296Z,11.74
2022-12-26T12:33:45.120Z,11.81
2022-12-26T12:36:15.837Z,11.68
2022-12-26T12:38:58.637Z,11.41
2022-12-26T12:41:42.400Z,11.46
2022-12-26T12:44:14.202Z,11.43
2022-12-26T12:46:54.046Z,11.51
2022-12-26T12:49:38.369Z,11.61
2022-12-26T12:52:19.805Z,11.51
2022-12-26T12:55:24.056Z,11.47
2022-12-26T12:57:56.315Z,11.42
2022-12-26T13:00:26.491Z,11.32
2022-12-26T13:03:00.125Z,11.40
2022-12-26T13:05:38.387Z,11.51
2022-12-26T13:08:11.116Z,11.41
2022-12-26T13:10:46.125Z,11.37
2022-12-26T13:13:21.681Z,11.43
2022-12-26T13:15:52.621Z,11.46
2022-12-26T13:18:23.714Z,11.41
2022-12-26T13:20:53.284Z,11.19
2022-12-26T13:23:27.205Z,10.95
2022-12-26T13:26:06.361Z,10.89
2022-12-26T13:28:39.834Z,10.72
2022-12-26T13:31:06.399Z,10.51
2022-12-26T13:33:34.969Z,10.64
2022-12-26T13:36:03.617Z,10.47
2022-12-26T13:39:03.325Z,10.34
2022-12-26T13:41:31.679Z,10.30
2022-12-26T13:44:04.269Z,10.39
2022-12-26T13:46:54.677Z,10.47
2022-12-26T13:49:34.746Z,10.35
2022-12-26T13:52:15.931Z,10.36
2022-12-26T13:55:27.907Z,10.29
2022-12-26T13:58:22.380Z,10.12
2022-12-26T14:00:50.556Z,10.07
2022-12-26T14:03:36.308Z,9.46
2022-12-26T14:06:54.022Z,9.63
2022-12-26T14:09:49.594Z,9.64
2022-12-26T14:12:31.112Z,9.81
2022-12-26T14:15:15.962Z,9.58
2022-12-26T14:17:51.931Z,9.67
2022-12-26T14:20:38.852Z,9.62
2022-12-26T14:23:21.332Z,9.61
2022-12-26T14:25:54.625Z,9.63
2022-12-26T14:28:27.690Z,9.61
2022-12-26T14:31:07.158Z,9.72
2022-12-26T14:33:44.723Z,9.80
2022-12-26T14:36:22.609Z,9.72
2022-12-26T14:38:57.717Z,9.76
2022-12-26T14:41:24.702Z,9.77
2022-12-26T14:43:56.365Z,9.84
2022-12-26T14:46:59.705Z,9.90
2022-12-26T14:49:37.863Z,9.80
2022-12-26T14:52:36.228Z,9.85
2022-12-26T14:55:40.932Z,9.90
2022-12-26T14:58:25.005Z,9.89
2022-12-26T15:00:52.541Z,9.84
2022-12-26T15:03:56.833Z,9.83
2022-12-26T15:06:50.287Z,9.80
2022-12-26T15:09:38.726Z,9.57
2022-12-26T15:12:29.272Z,9.64
2022-12-26T15:15:22.578Z,9.68
2022-12-26T15:18:03.942Z,9.44
2022-12-26T15:21:03.586Z,9.25
2022-12-26T15:23:45.828Z,9.11
2022-12-26T15:26:36.477Z,8.90
2022-12-26T15:29:21.117Z,8.95
2022-12-26T15:31:57.961Z,8.65
2022-12-26T15:34:47.354Z,9.00
2022-12-26T15:37:24.366Z,9.08
2022-12-26T15:39:59.389Z,8.65
2022-12-26T15:42:39.915Z,8.75
2022-12-26T15:45:27.929Z,8.51
2022-12-26T15:48:02.582Z,8.42
2022-12-26T15:50:32.789Z,8.61
2022-12-26T15:53:23.464Z,8.69
2022-12-26T15:56:07.379Z,8.65
2022-12-26T15:58:53.905Z,8.64
2022-12-26T16:01:36.733Z,8.58
2022-12-26T16:04:07.555Z,8.31
2022-12-26T16:06:49.580Z,8.09
2022-12-26T16:09:26.703Z,8.13
2022-12-26T16:11:55.769Z,8.47
2022-12-26T16:14:26.444Z,8.20
2022-12-26T16:16:54.808Z,8.32
2022-12-26T16:19:25.896Z,8.17
2022-12-26T16:21:57.726Z,8.32
2022-12-26T16:24:26.568Z,8.13
2022-12-26T16:26:53.128Z,7.86
2022-12-26T16:29:21.035Z,8.10
2022-12-26T16:31:47.664Z,8.14
2022-12-26T16:34:18.256Z,7.99
2022-12-26T16:36:45.354Z,8.11
2022-12-26T16:39:12.736Z,8.23
2022-12-26T16:41:57.891Z,7.99
2022-12-26T16:44:30.734Z,8.18
2022-12-26T16:47:00.563Z,8.09
2022-12-26T16:49:29.934Z,7.94
2022-12-26T16:51:56.441Z,7.69
2022-12-26T16:54:29.277Z,7.62
2022-12-26T16:57:04.083Z,7.55
2022-12-26T16:59:40.227Z,7.31
2022-12-26T17:02:15.180Z,7.00
2022-12-26T17:04:54.342Z,6.91
2022-12-26T17:07:24.966Z,7.04
2022-12-26T17:09:59.246Z,6.90
2022-12-26T17:12:28.706Z,6.84
2022-12-26T17:14:58.418Z,6.93
2022-12-26T17:17:36.310Z,6.72
2022-12-26T17:20:37.948Z,6.66
2022-12-26T17:23:34.643Z,6.71
2022-12-26T17:26:19.207Z,6.70
2022-12-26T17:28:45.678Z,6.64
2022-12-26T17:31:16.475Z,6.55
2022-12-26T17:33:47.905Z,6.45
2022-12-26T17:39:11.402Z,6.92
2022-12-26T17:41:41.981Z,6.65
2022-12-26T17:44:39.412Z,6.44
2022-12-26T17:47:15.703Z,6.40
2022-12-26T17:49:42.447Z,6.32
2022-12-26T17:52:11.500Z,6.20
2022-12-26T17:54:37.982Z,6.17
2022-12-26T17:57:04.554Z,6.15
2022-12-26T17:59:30.993Z,6.23
2022-12-26T18:01:57.535Z,6.05
2022-12-26T18:04:24.002Z,5.83
2022-12-26T18:06:50.475Z,6.00
2022-12-26T18:09:26.071Z,5.89
2022-12-26T18:11:53.124Z,5.93
2022-12-26T18:14:19.711Z,5.94
2022-12-26T18:16:47.210Z,5.79
2022-12-26T18:19:15.431Z,5.76
2022-12-26T18:21:42.645Z,5.73
2022-12-26T18:24:09.434Z,5.70
2022-12-26T18:26:37.463Z,5.69
2022-12-26T18:29:03.952Z,5.55
2022-12-26T18:31:30.489Z,5.41
2022-12-26T18:33:57.603Z,5.53
2022-12-26T18:36:29.638Z,5.44
2022-12-26T18:38:56.071Z,5.37
2022-12-26T18:41:22.492Z,5.47
2022-12-26T18:43:50.268Z,5.31
2022-12-26T18:46:18.338Z,5.20
2022-12-26T18:48:45.451Z,5.33
2022-12-26T18:51:12.267Z,5.14
2022-12-26T18:53:39.111Z,5.19
2022-12-26T18:56:06.191Z,5.22
2022-12-26T18:58:32.811Z,5.19
2022-12-26T19:01:02.708Z,5.15
2022-12-26T19:03:29.257Z,5.12
2022-12-26T19:05:55.695Z,5.09
2022-12-26T19:08:22.129Z,5.11
2022-12-26T19:10:48.606Z,5.00
2022-12-26T19:13:16.088Z,5.01
2022-12-26T19:15:45.521Z,5.04
2022-12-26T19:18:13.448Z,4.97
2022-12-26T19:20:44.136Z,4.88
2022-12-26T19:23:10.999Z,4.77
2022-12-26T19:25:37.431Z,4.77
2022-12-26T19:28:03.960Z,4.70
2022-12-26T19:30:35.198Z,4.85
2022-12-26T19:33:05.078Z,4.74
2022-12-26T19:35:32.964Z,4.74
2022-12-26T19:37:59.436Z,4.76
2022-12-26T19:40:25.943Z,4.85
2022-12-26T19:42:52.803Z,4.80
2022-12-26T19:45:19.327Z,4.82
2022-12-26T19:47:45.774Z,4.77
2022-12-26T19:50:12.612Z,4.76
2022-12-26T19:52:40.481Z,4.66
2022-12-26T19:55:10.172Z,4.65
2022-12-26T19:57:36.603Z,4.64
2022-12-26T20:00:04.273Z,4.55
2022-12-26T20:02:38.947Z,4.61
2022-12-26T20:05:06.573Z,4.46
2022-12-26T20:07:33.370Z,4.55
2022-12-26T20:10:01.171Z,4.46
2022-12-26T20:12:27.600Z,4.50
2022-12-26T20:14:54.038Z,4.50
2022-12-26T20:17:20.506Z,4.26
2022-12-26T20:19:47.816Z,4.28
2022-12-26T20:22:14.295Z,4.41
2022-12-26T20:24:40.807Z,4.36
2022-12-26T20:27:08.577Z,4.23
2022-12-26T20:29:35.023Z,4.33
2022-12-26T20:32:01.434Z,4.31
2022-12-26T20:34:27.899Z,4.38
2022-12-26T20:36:54.340Z,4.40
2022-12-26T20:39:21.120Z,4.25
2022-12-26T20:41:47.590Z,4.25
2022-12-26T20:44:16.570Z,4.27
2022-12-26T20:46:44.055Z,4.39
2022-12-26T20:49:10.687Z,4.31
2022-12-26T20:51:39.368Z,4.34
2022-12-26T20:54:06.961Z,4.52
2022-12-26T20:56:33.579Z,4.27
2022-12-26T20:59:00.184Z,4.28
2022-12-26T21:01:28.681Z,4.25
2022-12-26T21:03:56.469Z,4.20
2022-12-26T21:06:27.268Z,4.25
2022-12-26T21:08:54.710Z,4.25
2022-12-26T21:11:23.547Z,4.25
2022-12-26T21:13:51.768Z,4.30
2022-12-26T21:16:20.873Z,4.14
2022-12-26T21:18:48.855Z,4.20
2022-12-26T21:21:18.075Z,4.32
2022-12-26T21:23:44.796Z,4.08
2022-12-26T21:26:11.383Z,4.08
2022-12-26T21:28:38.365Z,4.08
2022-12-26T21:31:07.216Z,4.09
2022-12-26T21:33:35.868Z,4.14
2022-12-26T21:36:09.885Z,4.11
2022-12-26T21:38:36.583Z,4.09
2022-12-26T21:41:05.946Z,4.07
2022-12-26T21:43:32.370Z,4.15
2022-12-26T21:46:01.348Z,4.20
2022-12-26T21:48:28.059Z,4.14
2022-12-26T21:50:54.509Z,4.13
2022-12-26T21:53:22.306Z,4.16
2022-12-26T21:55:48.759Z,4.26
2022-12-26T21:58:15.168Z,4.23
2022-12-26T22:00:41.790Z,4.12
2022-12-26T22:03:08.706Z,4.29
2022-12-26T22:05:37.583Z,4.17
2022-12-26T22:08:05.784Z,4.24
2022-12-26T22:10:35.152Z,4.18
2022-12-26T22:13:02.821Z,4.13
2022-12-26T22:15:29.358Z,4.16
2022-12-26T22:17:56.035Z,4.10
2022-12-26T22:20:23.283Z,4.20
2022-12-26T22:22:49.907Z,4.25
2022-12-26T22:25:16.528Z,4.13
2022-12-26T22:27:44.521Z,4.16
2022-12-26T22:30:11.919Z,4.31
2022-12-26T22:32:38.580Z,4.27
2022-12-26T22:35:05.833Z,4.31
2022-12-26T22:37:32.310Z,4.39
2022-12-26T22:39:58.764Z,4.39
2022-12-26T22:42:25.221Z,4.33
2022-12-26T22:44:53.069Z,4.48
2022-12-26T22:47:19.718Z,4.54
2022-12-26T22:49:46.168Z,4.20
2022-12-26T22:52:15.847Z,4.49
2022-12-26T22:54:42.621Z,4.45
2022-12-26T22:57:09.675Z,4.56
2022-12-26T23:00:06.897Z,4.52
2022-12-26T23:02:24.031Z,4.53
2022-12-26T23:04:51.143Z,4.48
2022-12-26T23:07:20.352Z,4.49
2022-12-26T23:09:47.060Z,4.34
2022-12-26T23:12:14.082Z,4.42
2022-12-26T23:14:40.767Z,4.41
2022-12-26T23:17:10.351Z,4.36
2022-12-26T23:19:43.515Z,4.36
2022-12-26T23:22:10.336Z,4.43
2022-12-26T23:24:36.797Z,4.46
2022-12-26T23:27:11.668Z,4.40
2022-12-26T23:29:38.330Z,4.41
2022-12-26T23:32:05.702Z,4.36
2022-12-26T23:34:32.185Z,4.33
2022-12-26T23:37:00.351Z,4.26
2022-12-26T23:39:26.904Z,4.34
2022-12-26T23:41:53.423Z,4.20
2022-12-26T23:44:19.921Z,4.28
2022-12-26T23:46:46.524Z,4.22
2022-12-26T23:49:13.788Z,4.34
2022-12-26T23:51:40.379Z,4.35
2022-12-26T23:54:08.787Z,4.36
2022-12-26T23:56:36.232Z,4.30
2022-12-26T23:59:03.005Z,4.31
